sensor_id;sensor_type;location;lat;lon;timestamp;P1;durP1;ratioP1;P2;durP2;ratioP2
16792;SDS011;8513;42.662;23.350;2023-03-01T00:02:22;3.73;;;3.43;;
16792;SDS011;8513;42.662;23.350;2023-03-01T00:04:48;4.03;;;3.73;;
16792;SDS011;8513;42.662;23.350;2023-03-01T00:07:13;4.03;;;3.67;;
16792;SDS011;8513;42.662;23.350;2023-03-01T00:09:38;4.23;;;3.80;;
16792;SDS011;8513;42.662;23.350;2023-03-01T00:12:05;3.90;;;3.60;;
16792;SDS011;8513;42.662;23.350;2023-03-01T00:14:30;4.00;;;3.60;;
16792;SDS011;8513;42.662;23.350;2023-03-01T00:16:56;3.90;;;3.60;;
16792;SDS011;8513;42.662;23.350;2023-03-01T00:19:21;4.03;;;3.73;;
16792;SDS011;8513;42.662;23.350;2023-03-01T00:21:47;3.50;;;3.20;;
16792;SDS011;8513;42.662;23.350;2023-03-01T00:24:13;3.70;;;3.40;;
16792;SDS011;8513;42.662;23.350;2023-03-01T00:26:38;3.17;;;2.97;;
16792;SDS011;8513;42.662;23.350;2023-03-01T00:29:04;2.90;;;2.70;;
16792;SDS011;8513;42.662;23.350;2023-03-01T00:31:30;3.00;;;2.80;;
16792;SDS011;8513;42.662;23.350;2023-03-01T00:33:58;3.40;;;3.20;;
16792;SDS011;8513;42.662;23.350;2023-03-01T00:36:26;3.10;;;2.80;;
16792;SDS011;8513;42.662;23.350;2023-03-01T00:38:54;3.33;;;3.03;;
16792;SDS011;8513;42.662;23.350;2023-03-01T00:41:21;3.37;;;3.10;;
16792;SDS011;8513;42.662;23.350;2023-03-01T00:43:51;2.87;;;2.67;;
16792;SDS011;8513;42.662;23.350;2023-03-01T00:46:19;3.47;;;2.80;;
16792;SDS011;8513;42.662;23.350;2023-03-01T00:48:46;3.57;;;2.90;;
16792;SDS011;8513;42.662;23.350;2023-03-01T00:51:14;2.77;;;2.50;;
16792;SDS011;8513;42.662;23.350;2023-03-01T00:53:39;3.30;;;3.10;;
16792;SDS011;8513;42.662;23.350;2023-03-01T00:56:06;2.60;;;2.40;;
16792;SDS011;8513;42.662;23.350;2023-03-01T00:58:33;2.90;;;2.70;;
16792;SDS011;8513;42.662;23.350;2023-03-01T01:00:59;3.53;;;2.93;;
16792;SDS011;8513;42.662;23.350;2023-03-01T01:03:25;3.00;;;2.80;;
16792;SDS011;8513;42.662;23.350;2023-03-01T01:05:53;2.97;;;2.77;;
16792;SDS011;8513;42.662;23.350;2023-03-01T01:08:20;2.70;;;2.50;;
16792;SDS011;8513;42.662;23.350;2023-03-01T01:10:46;2.60;;;2.40;;
16792;SDS011;8513;42.662;23.350;2023-03-01T01:13:12;2.57;;;2.37;;
16792;SDS011;8513;42.662;23.350;2023-03-01T01:15:38;2.53;;;2.33;;
16792;SDS011;8513;42.662;23.350;2023-03-01T01:18:04;3.03;;;2.37;;
16792;SDS011;8513;42.662;23.350;2023-03-01T01:20:29;2.57;;;2.37;;
16792;SDS011;8513;42.662;23.350;2023-03-01T01:22:55;2.27;;;2.17;;
16792;SDS011;8513;42.662;23.350;2023-03-01T01:25:20;2.60;;;2.10;;
16792;SDS011;8513;42.662;23.350;2023-03-01T01:27:46;1.80;;;1.70;;
16792;SDS011;8513;42.662;23.350;2023-03-01T01:30:11;1.90;;;1.80;;
16792;SDS011;8513;42.662;23.350;2023-03-01T01:32:37;2.10;;;2.00;;
16792;SDS011;8513;42.662;23.350;2023-03-01T01:35:03;2.13;;;1.67;;
16792;SDS011;8513;42.662;23.350;2023-03-01T01:37:29;1.80;;;1.70;;
16792;SDS011;8513;42.662;23.350;2023-03-01T01:39:58;1.73;;;1.63;;
16792;SDS011;8513;42.662;23.350;2023-03-01T01:42:24;1.57;;;1.47;;
16792;SDS011;8513;42.662;23.350;2023-03-01T01:45:34;1.97;;;1.77;;
16792;SDS011;8513;42.662;23.350;2023-03-01T01:47:58;1.80;;;1.70;;
16792;SDS011;8513;42.662;23.350;2023-03-01T01:50:30;1.53;;;1.43;;
16792;SDS011;8513;42.662;23.350;2023-03-01T01:53:03;1.43;;;1.33;;
16792;SDS011;8513;42.662;23.350;2023-03-01T01:55:46;1.70;;;1.60;;
16792;SDS011;8513;42.662;23.350;2023-03-01T01:58:17;1.97;;;1.87;;
16792;SDS011;8513;42.662;23.350;2023-03-01T02:00:46;1.60;;;1.50;;
16792;SDS011;8513;42.662;23.350;2023-03-01T02:03:14;1.60;;;1.50;;
16792;SDS011;8513;42.662;23.350;2023-03-01T02:09:04;1.70;;;1.60;;
16792;SDS011;8513;42.662;23.350;2023-03-01T02:11:33;1.60;;;1.50;;
16792;SDS011;8513;42.662;23.350;2023-03-01T02:13:59;1.70;;;1.60;;
16792;SDS011;8513;42.662;23.350;2023-03-01T02:16:25;1.60;;;1.50;;
16792;SDS011;8513;42.662;23.350;2023-03-01T02:18:51;1.57;;;1.47;;
16792;SDS011;8513;42.662;23.350;2023-03-01T02:23:46;1.60;;;1.50;;
16792;SDS011;8513;42.662;23.350;2023-03-01T02:26:18;1.77;;;1.67;;
16792;SDS011;8513;42.662;23.350;2023-03-01T02:28:58;1.70;;;1.60;;
16792;SDS011;8513;42.662;23.350;2023-03-01T02:31:24;1.60;;;1.50;;
16792;SDS011;8513;42.662;23.350;2023-03-01T02:34:18;1.63;;;1.53;;
16792;SDS011;8513;42.662;23.350;2023-03-01T02:36:47;1.50;;;1.40;;
16792;SDS011;8513;42.662;23.350;2023-03-01T02:39:19;1.97;;;1.87;;
16792;SDS011;8513;42.662;23.350;2023-03-01T02:41:52;1.63;;;1.53;;
16792;SDS011;8513;42.662;23.350;2023-03-01T02:44:19;1.87;;;1.77;;
16792;SDS011;8513;42.662;23.350;2023-03-01T02:46:50;2.10;;;2.00;;
16792;SDS011;8513;42.662;23.350;2023-03-01T02:49:25;1.90;;;1.80;;
16792;SDS011;8513;42.662;23.350;2023-03-01T02:57:30;2.10;;;2.00;;
16792;SDS011;8513;42.662;23.350;2023-03-01T02:59:59;2.37;;;2.17;;
16792;SDS011;8513;42.662;23.350;2023-03-01T03:02:32;2.30;;;2.20;;
16792;SDS011;8513;42.662;23.350;2023-03-01T03:05:06;2.70;;;2.50;;
16792;SDS011;8513;42.662;23.350;2023-03-01T03:07:33;2.70;;;2.50;;
16792;SDS011;8513;42.662;23.350;2023-03-01T03:10:02;2.70;;;2.50;;
16792;SDS011;8513;42.662;23.350;2023-03-01T03:12:28;2.70;;;2.50;;
16792;SDS011;8513;42.662;23.350;2023-03-01T03:14:54;3.03;;;2.83;;
16792;SDS011;8513;42.662;23.350;2023-03-01T03:17:19;3.20;;;3.00;;
16792;SDS011;8513;42.662;23.350;2023-03-01T03:19:45;3.50;;;3.20;;
16792;SDS011;8513;42.662;23.350;2023-03-01T03:22:11;3.23;;;2.97;;
16792;SDS011;8513;42.662;23.350;2023-03-01T03:24:37;3.30;;;2.80;;
16792;SDS011;8513;42.662;23.350;2023-03-01T03:27:03;3.20;;;3.00;;
16792;SDS011;8513;42.662;23.350;2023-03-01T03:29:29;3.00;;;2.80;;
16792;SDS011;8513;42.662;23.350;2023-03-01T03:31:55;3.10;;;2.90;;
16792;SDS011;8513;42.662;23.350;2023-03-01T03:34:20;3.10;;;2.90;;
16792;SDS011;8513;42.662;23.350;2023-03-01T03:36:46;3.20;;;3.00;;
16792;SDS011;8513;42.662;23.350;2023-03-01T03:39:11;3.10;;;2.90;;
16792;SDS011;8513;42.662;23.350;2023-03-01T03:41:37;3.07;;;2.87;;
16792;SDS011;8513;42.662;23.350;2023-03-01T03:44:02;2.80;;;2.60;;
16792;SDS011;8513;42.662;23.350;2023-03-01T03:46:28;2.77;;;2.40;;
16792;SDS011;8513;42.662;23.350;2023-03-01T03:48:53;2.50;;;2.40;;
16792;SDS011;8513;42.662;23.350;2023-03-01T03:51:19;2.97;;;2.43;;
16792;SDS011;8513;42.662;23.350;2023-03-01T03:53:45;2.60;;;2.40;;
16792;SDS011;8513;42.662;23.350;2023-03-01T03:56:11;2.73;;;2.53;;
16792;SDS011;8513;42.662;23.350;2023-03-01T03:58:37;2.63;;;2.00;;
16792;SDS011;8513;42.662;23.350;2023-03-01T04:01:03;2.67;;;2.47;;
16792;SDS011;8513;42.662;23.350;2023-03-01T04:03:29;2.33;;;2.13;;
16792;SDS011;8513;42.662;23.350;2023-03-01T04:05:57;2.77;;;2.30;;
16792;SDS011;8513;42.662;23.350;2023-03-01T04:08:23;2.20;;;2.00;;
16792;SDS011;8513;42.662;23.350;2023-03-01T04:10:50;1.83;;;1.73;;
16792;SDS011;8513;42.662;23.350;2023-03-01T04:13:19;2.33;;;2.20;;
16792;SDS011;8513;42.662;23.350;2023-03-01T04:15:48;2.50;;;2.30;;
16792;SDS011;8513;42.662;23.350;2023-03-01T04:18:16;2.30;;;2.20;;
16792;SDS011;8513;42.662;23.350;2023-03-01T04:20:43;2.80;;;2.60;;
16792;SDS011;8513;42.662;23.350;2023-03-01T04:23:13;2.70;;;2.33;;
16792;SDS011;8513;42.662;23.350;2023-03-01T04:28:25;3.17;;;2.60;;
16792;SDS011;8513;42.662;23.350;2023-03-01T04:30:55;3.53;;;2.60;;
16792;SDS011;8513;42.662;23.350;2023-03-01T04:33:22;2.50;;;2.30;;
16792;SDS011;8513;42.662;23.350;2023-03-01T04:35:49;2.87;;;2.50;;
16792;SDS011;8513;42.662;23.350;2023-03-01T04:38:18;4.00;;;2.70;;
16792;SDS011;8513;42.662;23.350;2023-03-01T04:40:44;3.17;;;2.90;;
16792;SDS011;8513;42.662;23.350;2023-03-01T04:43:11;3.83;;;3.53;;
16792;SDS011;8513;42.662;23.350;2023-03-01T04:45:40;2.80;;;2.60;;
16792;SDS011;8513;42.662;23.350;2023-03-01T04:48:05;3.10;;;2.80;;
16792;SDS011;8513;42.662;23.350;2023-03-01T04:50:31;2.67;;;2.47;;
16792;SDS011;8513;42.662;23.350;2023-03-01T04:52:56;2.97;;;2.70;;
16792;SDS011;8513;42.662;23.350;2023-03-01T04:55:24;2.70;;;2.50;;
16792;SDS011;8513;42.662;23.350;2023-03-01T04:57:50;2.70;;;2.50;;
16792;SDS011;8513;42.662;23.350;2023-03-01T05:00:16;2.57;;;2.37;;
16792;SDS011;8513;42.662;23.350;2023-03-01T05:02:58;2.87;;;2.60;;
16792;SDS011;8513;42.662;23.350;2023-03-01T05:07:54;2.63;;;2.10;;
16792;SDS011;8513;42.662;23.350;2023-03-01T05:10:21;2.50;;;2.30;;
16792;SDS011;8513;42.662;23.350;2023-03-01T05:12:47;2.53;;;2.33;;
16792;SDS011;8513;42.662;23.350;2023-03-01T05:15:13;2.67;;;2.30;;
16792;SDS011;8513;42.662;23.350;2023-03-01T05:17:39;3.33;;;2.63;;
16792;SDS011;8513;42.662;23.350;2023-03-01T05:20:04;2.70;;;2.50;;
16792;SDS011;8513;42.662;23.350;2023-03-01T05:22:34;2.70;;;2.50;;
16792;SDS011;8513;42.662;23.350;2023-03-01T05:25:00;2.97;;;2.67;;
16792;SDS011;8513;42.662;23.350;2023-03-01T05:27:26;2.50;;;2.30;;
16792;SDS011;8513;42.662;23.350;2023-03-01T05:29:52;2.60;;;2.40;;
16792;SDS011;8513;42.662;23.350;2023-03-01T05:32:17;2.60;;;2.40;;
16792;SDS011;8513;42.662;23.350;2023-03-01T05:34:43;3.40;;;2.30;;
16792;SDS011;8513;42.662;23.350;2023-03-01T05:37:09;2.70;;;2.50;;
16792;SDS011;8513;42.662;23.350;2023-03-01T05:39:34;2.37;;;2.20;;
16792;SDS011;8513;42.662;23.350;2023-03-01T05:42:00;2.37;;;2.13;;
16792;SDS011;8513;42.662;23.350;2023-03-01T05:44:27;3.23;;;2.20;;
16792;SDS011;8513;42.662;23.350;2023-03-01T05:46:54;2.77;;;1.90;;
16792;SDS011;8513;42.662;23.350;2023-03-01T05:49:20;2.57;;;1.97;;
16792;SDS011;8513;42.662;23.350;2023-03-01T05:51:49;3.67;;;2.10;;
16792;SDS011;8513;42.662;23.350;2023-03-01T05:54:17;2.33;;;2.13;;
16792;SDS011;8513;42.662;23.350;2023-03-01T05:56:44;3.07;;;2.37;;
16792;SDS011;8513;42.662;23.350;2023-03-01T05:59:10;2.27;;;2.10;;
16792;SDS011;8513;42.662;23.350;2023-03-01T06:01:36;2.20;;;2.00;;
16792;SDS011;8513;42.662;23.350;2023-03-01T06:04:02;2.80;;;2.33;;
16792;SDS011;8513;42.662;23.350;2023-03-01T06:06:29;2.90;;;2.30;;
16792;SDS011;8513;42.662;23.350;2023-03-01T06:08:55;2.37;;;2.17;;
16792;SDS011;8513;42.662;23.350;2023-03-01T06:11:20;2.10;;;1.90;;
16792;SDS011;8513;42.662;23.350;2023-03-01T06:13:46;3.47;;;2.30;;
16792;SDS011;8513;42.662;23.350;2023-03-01T06:16:12;2.90;;;2.50;;
16792;SDS011;8513;42.662;23.350;2023-03-01T06:18:39;2.47;;;2.27;;
16792;SDS011;8513;42.662;23.350;2023-03-01T06:21:05;3.00;;;2.27;;
16792;SDS011;8513;42.662;23.350;2023-03-01T06:23:31;2.67;;;2.40;;
16792;SDS011;8513;42.662;23.350;2023-03-01T06:25:57;3.20;;;2.90;;
16792;SDS011;8513;42.662;23.350;2023-03-01T06:28:22;4.50;;;2.90;;
16792;SDS011;8513;42.662;23.350;2023-03-01T06:30:49;4.37;;;2.80;;
16792;SDS011;8513;42.662;23.350;2023-03-01T06:33:15;3.60;;;3.13;;
16792;SDS011;8513;42.662;23.350;2023-03-01T06:35:41;4.10;;;2.60;;
16792;SDS011;8513;42.662;23.350;2023-03-01T06:38:06;5.03;;;2.90;;
16792;SDS011;8513;42.662;23.350;2023-03-01T06:40:32;3.80;;;2.87;;
16792;SDS011;8513;42.662;23.350;2023-03-01T06:43:00;3.97;;;2.70;;
16792;SDS011;8513;42.662;23.350;2023-03-01T06:45:26;3.03;;;2.70;;
16792;SDS011;8513;42.662;23.350;2023-03-01T06:47:51;4.67;;;3.10;;
16792;SDS011;8513;42.662;23.350;2023-03-01T06:50:17;4.60;;;3.17;;
16792;SDS011;8513;42.662;23.350;2023-03-01T06:52:43;3.03;;;2.73;;
16792;SDS011;8513;42.662;23.350;2023-03-01T06:55:34;4.47;;;2.40;;
16792;SDS011;8513;42.662;23.350;2023-03-01T06:58:01;3.30;;;2.77;;
16792;SDS011;8513;42.662;23.350;2023-03-01T07:00:28;4.03;;;2.43;;
16792;SDS011;8513;42.662;23.350;2023-03-01T07:02:54;4.80;;;2.60;;
16792;SDS011;8513;42.662;23.350;2023-03-01T07:05:22;4.40;;;2.27;;
16792;SDS011;8513;42.662;23.350;2023-03-01T07:07:48;3.00;;;2.40;;
16792;SDS011;8513;42.662;23.350;2023-03-01T07:10:13;2.77;;;2.10;;
16792;SDS011;8513;42.662;23.350;2023-03-01T07:12:39;5.13;;;2.70;;
16792;SDS011;8513;42.662;23.350;2023-03-01T07:15:06;3.50;;;2.63;;
16792;SDS011;8513;42.662;23.350;2023-03-01T07:17:34;2.60;;;2.00;;
16792;SDS011;8513;42.662;23.350;2023-03-01T07:19:59;4.37;;;2.17;;
16792;SDS011;8513;42.662;23.350;2023-03-01T07:22:25;3.83;;;2.17;;
16792;SDS011;8513;42.662;23.350;2023-03-01T07:24:50;2.40;;;2.20;;
16792;SDS011;8513;42.662;23.350;2023-03-01T07:27:16;3.03;;;2.10;;
16792;SDS011;8513;42.662;23.350;2023-03-01T07:29:41;2.27;;;1.80;;
16792;SDS011;8513;42.662;23.350;2023-03-01T07:32:10;3.97;;;1.97;;
16792;SDS011;8513;42.662;23.350;2023-03-01T07:34:36;4.90;;;2.10;;
16792;SDS011;8513;42.662;23.350;2023-03-01T07:37:01;7.40;;;1.97;;
16792;SDS011;8513;42.662;23.350;2023-03-01T07:39:27;3.77;;;1.90;;
16792;SDS011;8513;42.662;23.350;2023-03-01T07:41:52;2.53;;;1.70;;
16792;SDS011;8513;42.662;23.350;2023-03-01T07:44:18;3.07;;;2.20;;
16792;SDS011;8513;42.662;23.350;2023-03-01T07:46:43;4.90;;;2.27;;
16792;SDS011;8513;42.662;23.350;2023-03-01T07:49:09;4.27;;;1.87;;
16792;SDS011;8513;42.662;23.350;2023-03-01T07:51:35;3.97;;;2.83;;
16792;SDS011;8513;42.662;23.350;2023-03-01T07:54:01;3.10;;;2.50;;
16792;SDS011;8513;42.662;23.350;2023-03-01T07:56:26;5.27;;;2.70;;
16792;SDS011;8513;42.662;23.350;2023-03-01T07:58:51;5.57;;;2.27;;
16792;SDS011;8513;42.662;23.350;2023-03-01T08:01:18;7.20;;;2.40;;
16792;SDS011;8513;42.662;23.350;2023-03-01T08:03:44;7.37;;;2.97;;
16792;SDS011;8513;42.662;23.350;2023-03-01T08:06:11;4.53;;;2.40;;
16792;SDS011;8513;42.662;23.350;2023-03-01T08:08:37;4.80;;;1.90;;
16792;SDS011;8513;42.662;23.350;2023-03-01T08:11:03;4.60;;;1.70;;
16792;SDS011;8513;42.662;23.350;2023-03-01T08:13:31;5.90;;;1.70;;
16792;SDS011;8513;42.662;23.350;2023-03-01T08:16:05;2.83;;;1.90;;
16792;SDS011;8513;42.662;23.350;2023-03-01T08:18:32;3.80;;;1.90;;
16792;SDS011;8513;42.662;23.350;2023-03-01T08:21:02;2.33;;;2.00;;
16792;SDS011;8513;42.662;23.350;2023-03-01T08:23:31;2.93;;;2.40;;
16792;SDS011;8513;42.662;23.350;2023-03-01T08:28:52;3.53;;;1.80;;
16792;SDS011;8513;42.662;23.350;2023-03-01T08:33:42;2.53;;;2.27;;
16792;SDS011;8513;42.662;23.350;2023-03-01T08:36:08;3.87;;;2.37;;
16792;SDS011;8513;42.662;23.350;2023-03-01T08:38:34;4.90;;;2.63;;
16792;SDS011;8513;42.662;23.350;2023-03-01T08:41:00;2.30;;;2.10;;
16792;SDS011;8513;42.662;23.350;2023-03-01T08:43:26;5.17;;;2.43;;
16792;SDS011;8513;42.662;23.350;2023-03-01T08:45:52;12.17;;;3.93;;
16792;SDS011;8513;42.662;23.350;2023-03-01T08:48:17;6.43;;;2.93;;
16792;SDS011;8513;42.662;23.350;2023-03-01T08:50:43;2.63;;;1.90;;
16792;SDS011;8513;42.662;23.350;2023-03-01T08:53:08;3.37;;;2.37;;
16792;SDS011;8513;42.662;23.350;2023-03-01T08:55:34;3.50;;;2.37;;
16792;SDS011;8513;42.662;23.350;2023-03-01T08:57:59;3.47;;;2.40;;
16792;SDS011;8513;42.662;23.350;2023-03-01T09:00:24;2.60;;;2.40;;
16792;SDS011;8513;42.662;23.350;2023-03-01T09:02:50;3.00;;;2.70;;
16792;SDS011;8513;42.662;23.350;2023-03-01T09:05:15;3.20;;;2.33;;
16792;SDS011;8513;42.662;23.350;2023-03-01T09:07:41;3.80;;;2.40;;
16792;SDS011;8513;42.662;23.350;2023-03-01T09:10:06;4.03;;;2.10;;
16792;SDS011;8513;42.662;23.350;2023-03-01T09:12:32;5.53;;;2.90;;
16792;SDS011;8513;42.662;23.350;2023-03-01T09:14:58;2.83;;;2.13;;
16792;SDS011;8513;42.662;23.350;2023-03-01T09:17:23;2.50;;;1.70;;
16792;SDS011;8513;42.662;23.350;2023-03-01T09:19:49;2.23;;;1.87;;
16792;SDS011;8513;42.662;23.350;2023-03-01T09:22:14;2.57;;;2.00;;
16792;SDS011;8513;42.662;23.350;2023-03-01T09:24:40;3.33;;;1.90;;
16792;SDS011;8513;42.662;23.350;2023-03-01T09:27:05;5.90;;;1.90;;
16792;SDS011;8513;42.662;23.350;2023-03-01T09:29:33;3.40;;;1.83;;
16792;SDS011;8513;42.662;23.350;2023-03-01T09:32:00;3.83;;;1.93;;
16792;SDS011;8513;42.662;23.350;2023-03-01T09:34:26;1.90;;;1.80;;
16792;SDS011;8513;42.662;23.350;2023-03-01T09:36:52;2.33;;;2.13;;
16792;SDS011;8513;42.662;23.350;2023-03-01T09:39:17;2.53;;;1.43;;
16792;SDS011;8513;42.662;23.350;2023-03-01T09:46:45;3.27;;;1.30;;
16792;SDS011;8513;42.662;23.350;2023-03-01T09:49:18;2.10;;;1.10;;
16792;SDS011;8513;42.662;23.350;2023-03-01T09:51:54;2.23;;;1.43;;
16792;SDS011;8513;42.662;23.350;2023-03-01T09:54:32;3.73;;;1.23;;
16792;SDS011;8513;42.662;23.350;2023-03-01T10:05:12;1.50;;;1.40;;
16792;SDS011;8513;42.662;23.350;2023-03-01T10:10:54;1.73;;;1.57;;
16792;SDS011;8513;42.662;23.350;2023-03-01T10:15:58;2.93;;;1.50;;
16792;SDS011;8513;42.662;23.350;2023-03-01T10:18:31;4.88;;;2.05;;
16792;SDS011;8513;42.662;23.350;2023-03-01T10:21:02;1.42;;;1.33;;
16792;SDS011;8513;42.662;23.350;2023-03-01T10:23:37;2.10;;;1.80;;
16792;SDS011;8513;42.662;23.350;2023-03-01T10:29:24;3.20;;;1.70;;
16792;SDS011;8513;42.662;23.350;2023-03-01T10:31:47;2.53;;;1.90;;
16792;SDS011;8513;42.662;23.350;2023-03-01T10:34:22;1.73;;;1.63;;
16792;SDS011;8513;42.662;23.350;2023-03-01T10:37:15;4.50;;;1.43;;
16792;SDS011;8513;42.662;23.350;2023-03-01T10:40:02;3.77;;;2.60;;
16792;SDS011;8513;42.662;23.350;2023-03-01T10:42:34;3.00;;;1.80;;
16792;SDS011;8513;42.662;23.350;2023-03-01T10:48:11;4.45;;;2.15;;
16792;SDS011;8513;42.662;23.350;2023-03-01T10:50:38;7.15;;;2.28;;
16792;SDS011;8513;42.662;23.350;2023-03-01T10:53:05;3.47;;;2.10;;
16792;SDS011;8513;42.662;23.350;2023-03-01T10:58:34;2.00;;;1.90;;
16792;SDS011;8513;42.662;23.350;2023-03-01T11:01:02;2.10;;;1.83;;
16792;SDS011;8513;42.662;23.350;2023-03-01T11:03:40;2.78;;;2.35;;
16792;SDS011;8513;42.662;23.350;2023-03-01T11:06:18;2.27;;;2.07;;
16792;SDS011;8513;42.662;23.350;2023-03-01T11:08:47;2.33;;;2.00;;
16792;SDS011;8513;42.662;23.350;2023-03-01T11:13:54;2.75;;;2.25;;
16792;SDS011;8513;42.662;23.350;2023-03-01T11:16:26;4.40;;;2.73;;
16792;SDS011;8513;42.662;23.350;2023-03-01T11:21:33;2.40;;;2.20;;
16792;SDS011;8513;42.662;23.350;2023-03-01T11:24:19;2.77;;;2.13;;
16792;SDS011;8513;42.662;23.350;2023-03-01T11:26:52;4.90;;;3.30;;
16792;SDS011;8513;42.662;23.350;2023-03-01T11:32:08;2.80;;;2.60;;
16792;SDS011;8513;42.662;23.350;2023-03-01T11:37:26;3.20;;;2.20;;
16792;SDS011;8513;42.662;23.350;2023-03-01T11:45:14;3.10;;;2.43;;
16792;SDS011;8513;42.662;23.350;2023-03-01T12:11:59;4.37;;;3.10;;
16792;SDS011;8513;42.662;23.350;2023-03-01T12:14:36;4.60;;;2.90;;
16792;SDS011;8513;42.662;23.350;2023-03-01T12:17:22;5.30;;;2.90;;
16792;SDS011;8513;42.662;23.350;2023-03-01T12:22:39;3.17;;;2.88;;
16792;SDS011;8513;42.662;23.350;2023-03-01T12:25:31;3.28;;;2.72;;
16792;SDS011;8513;42.662;23.350;2023-03-01T12:28:08;4.80;;;3.30;;
16792;SDS011;8513;42.662;23.350;2023-03-01T12:49:34;4.77;;;3.40;;
16792;SDS011;8513;42.662;23.350;2023-03-01T12:54:53;3.33;;;3.07;;
16792;SDS011;8513;42.662;23.350;2023-03-01T13:10:49;3.25;;;2.95;;
16792;SDS011;8513;42.662;23.350;2023-03-01T13:13:23;3.67;;;3.00;;
16792;SDS011;8513;42.662;23.350;2023-03-01T13:15:50;3.58;;;3.28;;
16792;SDS011;8513;42.662;23.350;2023-03-01T13:31:04;3.08;;;2.78;;
16792;SDS011;8513;42.662;23.350;2023-03-01T13:35:59;3.72;;;3.40;;
16792;SDS011;8513;42.662;23.350;2023-03-01T13:38:39;3.70;;;2.90;;
16792;SDS011;8513;42.662;23.350;2023-03-01T13:41:15;5.20;;;3.13;;
16792;SDS011;8513;42.662;23.350;2023-03-01T13:43:46;3.47;;;3.17;;
16792;SDS011;8513;42.662;23.350;2023-03-01T13:46:15;3.42;;;3.15;;
16792;SDS011;8513;42.662;23.350;2023-03-01T13:48:45;4.55;;;3.20;;
16792;SDS011;8513;42.662;23.350;2023-03-01T13:51:15;5.10;;;3.78;;
16792;SDS011;8513;42.662;23.350;2023-03-01T13:53:42;3.75;;;3.45;;
16792;SDS011;8513;42.662;23.350;2023-03-01T13:56:17;3.67;;;3.33;;
16792;SDS011;8513;42.662;23.350;2023-03-01T14:01:52;4.10;;;3.23;;
16792;SDS011;8513;42.662;23.350;2023-03-01T14:04:23;3.30;;;3.00;;
16792;SDS011;8513;42.662;23.350;2023-03-01T14:06:52;3.87;;;3.37;;
16792;SDS011;8513;42.662;23.350;2023-03-01T14:09:56;5.07;;;3.47;;
16792;SDS011;8513;42.662;23.350;2023-03-01T14:15:15;4.50;;;3.20;;
16792;SDS011;8513;42.662;23.350;2023-03-01T14:20:24;3.35;;;2.80;;
16792;SDS011;8513;42.662;23.350;2023-03-01T14:22:52;4.47;;;3.42;;
16792;SDS011;8513;42.662;23.350;2023-03-01T14:28:13;3.20;;;2.90;;
16792;SDS011;8513;42.662;23.350;2023-03-01T14:30:43;4.82;;;2.85;;
16792;SDS011;8513;42.662;23.350;2023-03-01T14:33:24;3.92;;;2.85;;
16792;SDS011;8513;42.662;23.350;2023-03-01T14:38:23;3.30;;;2.97;;
16792;SDS011;8513;42.662;23.350;2023-03-01T14:40:54;5.80;;;2.90;;
16792;SDS011;8513;42.662;23.350;2023-03-01T14:43:23;3.13;;;2.83;;
16792;SDS011;8513;42.662;23.350;2023-03-01T14:45:51;4.78;;;2.42;;
16792;SDS011;8513;42.662;23.350;2023-03-01T14:48:16;4.43;;;2.27;;
16792;SDS011;8513;42.662;23.350;2023-03-01T14:50:43;4.43;;;2.30;;
16792;SDS011;8513;42.662;23.350;2023-03-01T14:53:15;3.77;;;2.30;;
16792;SDS011;8513;42.662;23.350;2023-03-01T14:55:42;6.03;;;3.20;;
16792;SDS011;8513;42.662;23.350;2023-03-01T14:58:14;3.00;;;1.93;;
16792;SDS011;8513;42.662;23.350;2023-03-01T15:00:45;8.20;;;2.70;;
16792;SDS011;8513;42.662;23.350;2023-03-01T15:03:17;3.93;;;1.90;;
16792;SDS011;8513;42.662;23.350;2023-03-01T15:05:49;5.10;;;2.40;;
16792;SDS011;8513;42.662;23.350;2023-03-01T15:08:19;5.87;;;2.80;;
16792;SDS011;8513;42.662;23.350;2023-03-01T15:13:39;2.97;;;2.30;;
16792;SDS011;8513;42.662;23.350;2023-03-01T15:16:06;5.00;;;2.73;;
16792;SDS011;8513;42.662;23.350;2023-03-01T15:18:35;3.60;;;2.80;;
16792;SDS011;8513;42.662;23.350;2023-03-01T15:21:06;9.57;;;3.03;;
16792;SDS011;8513;42.662;23.350;2023-03-01T15:23:34;5.33;;;3.20;;
16792;SDS011;8513;42.662;23.350;2023-03-01T15:26:03;4.47;;;2.93;;
16792;SDS011;8513;42.662;23.350;2023-03-01T15:28:37;4.10;;;3.60;;
16792;SDS011;8513;42.662;23.350;2023-03-01T15:31:19;4.73;;;3.60;;
16792;SDS011;8513;42.662;23.350;2023-03-01T15:33:47;5.10;;;4.23;;
16792;SDS011;8513;42.662;23.350;2023-03-01T15:42:11;4.77;;;4.37;;
16792;SDS011;8513;42.662;23.350;2023-03-01T15:47:43;5.93;;;5.33;;
16792;SDS011;8513;42.662;23.350;2023-03-01T15:50:17;5.17;;;4.63;;
16792;SDS011;8513;42.662;23.350;2023-03-01T15:52:46;5.83;;;4.20;;
16792;SDS011;8513;42.662;23.350;2023-03-01T15:55:30;4.63;;;3.80;;
16792;SDS011;8513;42.662;23.350;2023-03-01T15:58:12;4.50;;;4.10;;
16792;SDS011;8513;42.662;23.350;2023-03-01T16:00:38;6.27;;;5.30;;
16792;SDS011;8513;42.662;23.350;2023-03-01T16:03:04;3.80;;;3.47;;
16792;SDS011;8513;42.662;23.350;2023-03-01T16:05:31;3.83;;;3.47;;
16792;SDS011;8513;42.662;23.350;2023-03-01T16:07:59;4.50;;;3.27;;
16792;SDS011;8513;42.662;23.350;2023-03-01T16:10:25;6.30;;;3.70;;
16792;SDS011;8513;42.662;23.350;2023-03-01T16:12:51;4.77;;;3.40;;
16792;SDS011;8513;42.662;23.350;2023-03-01T16:15:35;3.80;;;3.17;;
16792;SDS011;8513;42.662;23.350;2023-03-01T16:18:01;6.90;;;3.30;;
16792;SDS011;8513;42.662;23.350;2023-03-01T16:20:28;3.53;;;3.13;;
16792;SDS011;8513;42.662;23.350;2023-03-01T16:22:54;4.80;;;3.30;;
16792;SDS011;8513;42.662;23.350;2023-03-01T16:25:23;4.53;;;3.43;;
16792;SDS011;8513;42.662;23.350;2023-03-01T16:27:49;5.23;;;3.37;;
16792;SDS011;8513;42.662;23.350;2023-03-01T16:30:16;4.33;;;3.33;;
16792;SDS011;8513;42.662;23.350;2023-03-01T16:32:44;3.70;;;3.40;;
16792;SDS011;8513;42.662;23.350;2023-03-01T16:35:11;3.67;;;3.27;;
16792;SDS011;8513;42.662;23.350;2023-03-01T16:37:39;3.43;;;3.13;;
16792;SDS011;8513;42.662;23.350;2023-03-01T16:40:06;4.83;;;3.13;;
16792;SDS011;8513;42.662;23.350;2023-03-01T16:42:40;4.83;;;3.67;;
16792;SDS011;8513;42.662;23.350;2023-03-01T16:45:07;4.80;;;3.67;;
16792;SDS011;8513;42.662;23.350;2023-03-01T16:47:33;4.55;;;3.50;;
16792;SDS011;8513;42.662;23.350;2023-03-01T16:49:59;3.50;;;3.20;;
16792;SDS011;8513;42.662;23.350;2023-03-01T16:52:24;4.20;;;3.57;;
16792;SDS011;8513;42.662;23.350;2023-03-01T16:54:50;3.53;;;3.23;;
16792;SDS011;8513;42.662;23.350;2023-03-01T16:57:16;3.73;;;3.30;;
16792;SDS011;8513;42.662;23.350;2023-03-01T16:59:42;3.50;;;3.20;;
16792;SDS011;8513;42.662;23.350;2023-03-01T17:02:10;3.67;;;3.10;;
16792;SDS011;8513;42.662;23.350;2023-03-01T17:04:39;4.00;;;3.37;;
16792;SDS011;8513;42.662;23.350;2023-03-01T17:07:04;3.17;;;2.80;;
16792;SDS011;8513;42.662;23.350;2023-03-01T17:09:33;3.30;;;2.90;;
16792;SDS011;8513;42.662;23.350;2023-03-01T17:11:59;4.70;;;2.97;;
16792;SDS011;8513;42.662;23.350;2023-03-01T17:14:25;3.70;;;3.17;;
16792;SDS011;8513;42.662;23.350;2023-03-01T17:16:50;4.10;;;3.30;;
16792;SDS011;8513;42.662;23.350;2023-03-01T17:19:17;3.43;;;3.13;;
16792;SDS011;8513;42.662;23.350;2023-03-01T17:21:44;5.80;;;3.00;;
16792;SDS011;8513;42.662;23.350;2023-03-01T17:24:10;5.40;;;3.50;;
16792;SDS011;8513;42.662;23.350;2023-03-01T17:26:36;4.17;;;3.27;;
16792;SDS011;8513;42.662;23.350;2023-03-01T17:29:03;5.67;;;3.20;;
16792;SDS011;8513;42.662;23.350;2023-03-01T17:31:29;4.10;;;3.53;;
16792;SDS011;8513;42.662;23.350;2023-03-01T17:33:56;3.83;;;3.47;;
16792;SDS011;8513;42.662;23.350;2023-03-01T17:36:21;4.27;;;3.87;;
16792;SDS011;8513;42.662;23.350;2023-03-01T17:38:47;4.73;;;4.27;;
16792;SDS011;8513;42.662;23.350;2023-03-01T17:41:14;5.40;;;4.90;;
16792;SDS011;8513;42.662;23.350;2023-03-01T17:43:41;5.17;;;4.67;;
16792;SDS011;8513;42.662;23.350;2023-03-01T17:46:07;6.00;;;5.37;;